createdAt,value
2023-01-27T00:00:33.135Z,98488.38
2023-01-27T00:03:00.780Z,98492.88
2023-01-27T00:05:27.725Z,98501.66
2023-01-27T00:07:55.315Z,98494.94
2023-01-27T00:10:21.849Z,98494.78
2023-01-27T00:13:07.068Z,98499.38
2023-01-27T00:15:34.443Z,98487.34
2023-01-27T00:18:01.701Z,98485.84
2023-01-27T00:20:46.676Z,98486.31
2023-01-27T00:23:40.906Z,98482.56
2023-01-27T00:26:10.432Z,98485.84
2023-01-27T00:28:39.508Z,98490.81
2023-01-27T00:31:08.104Z,98476.72
2023-01-27T00:33:34.554Z,98488.56
2023-01-27T00:36:07.377Z,98480.03
2023-01-27T00:38:40.715Z,98484.97
2023-01-27T00:41:20.097Z,98472.75
2023-01-27T00:43:53.774Z,98476.44
2023-01-27T00:46:22.691Z,98476.81
2023-01-27T00:48:51.766Z,98488.94
2023-01-27T00:51:18.807Z,98486.16
2023-01-27T00:53:45.626Z,98479.31
2023-01-27T00:56:12.644Z,98475.56
2023-01-27T00:58:39.962Z,98477.34
2023-01-27T01:01:10.903Z,98472.84
2023-01-27T01:03:37.443Z,98473.81
2023-01-27T01:06:07.562Z,98479.72
2023-01-27T01:08:35.848Z,98459.50
2023-01-27T01:11:03.068Z,98470.53
2023-01-27T01:13:29.972Z,98474.94
2023-01-27T01:15:57.231Z,98480.44
2023-01-27T01:18:24.464Z,98477.09
2023-01-27T01:20:50.881Z,98482.34
2023-01-27T01:23:17.431Z,98483.03
2023-01-27T01:25:52.983Z,98487.84
2023-01-27T01:28:19.475Z,98491.28
2023-01-27T01:30:46.106Z,98490.84
2023-01-27T01:33:12.752Z,98485.06
2023-01-27T01:35:39.587Z,98478.19
2023-01-27T01:38:06.490Z,98475.47
2023-01-27T01:40:33.341Z,98476.91
2023-01-27T01:43:02.397Z,98483.34
2023-01-27T01:45:47.710Z,98482.44
2023-01-27T01:48:19.849Z,98486.72
2023-01-27T01:50:55.223Z,98479.25
2023-01-27T01:53:29.307Z,98484.75
2023-01-27T01:56:00.227Z,98465.09
2023-01-27T01:58:28.067Z,98488.06
2023-01-27T02:00:56.291Z,98472.06
2023-01-27T02:03:26.063Z,98477.00
2023-01-27T02:05:54.986Z,98463.56
2023-01-27T02:08:29.187Z,98469.81
2023-01-27T02:10:56.259Z,98474.06
2023-01-27T02:13:22.752Z,98470.94
2023-01-27T02:15:52.188Z,98474.81
2023-01-27T02:18:18.778Z,98470.09
2023-01-27T02:20:51.777Z,98464.94
2023-01-27T02:23:44.150Z,98465.63
2023-01-27T02:26:34.404Z,98461.66
2023-01-27T02:29:05.681Z,98456.72
2023-01-27T02:31:32.526Z,98462.25
2023-01-27T02:34:03.558Z,98436.41
2023-01-27T02:36:34.731Z,98457.81
2023-01-27T02:39:02.205Z,98462.47
2023-01-27T02:41:39.926Z,98465.41
2023-01-27T02:44:07.426Z,98464.91
2023-01-27T02:46:33.989Z,98460.75
2023-01-27T02:49:02.185Z,98469.16
2023-01-27T02:51:29.054Z,98462.47
2023-01-27T02:53:55.561Z,98461.97
2023-01-27T02:56:22.419Z,98471.38
2023-01-27T02:58:48.967Z,98459.97
2023-01-27T03:01:21.032Z,98464.81
2023-01-27T03:03:47.780Z,98469.44
2023-01-27T03:06:19.233Z,98470.22
2023-01-27T03:08:45.730Z,98463.78
2023-01-27T03:11:14.845Z,98479.69
2023-01-27T03:13:41.348Z,98486.34
2023-01-27T03:16:27.255Z,98482.47
2023-01-27T03:18:56.584Z,98483.97
2023-01-27T03:21:23.148Z,98489.91
2023-01-27T03:23:49.640Z,98446.06
2023-01-27T03:26:20.830Z,98483.28
2023-01-27T03:29:12.263Z,98481.44
2023-01-27T03:31:41.640Z,98470.13
2023-01-27T03:34:09.666Z,98489.25
2023-01-27T03:37:00.438Z,98497.94
2023-01-27T03:39:45.737Z,98488.75
2023-01-27T03:42:30.537Z,98487.59
2023-01-27T03:45:15.874Z,98491.97
2023-01-27T03:47:42.431Z,98490.72
2023-01-27T03:50:13.827Z,98480.03
2023-01-27T03:52:40.345Z,98499.41
2023-01-27T03:55:09.286Z,98492.81
2023-01-27T03:57:37.930Z,98499.56
2023-01-27T04:00:05.215Z,98485.88
2023-01-27T04:02:57.967Z,98491.91
2023-01-27T04:05:43.362Z,98502.78
2023-01-27T04:08:09.778Z,98496.47
2023-01-27T04:10:36.208Z,98496.22
2023-01-27T04:13:02.692Z,98501.25
2023-01-27T04:15:29.161Z,98497.84
2023-01-27T04:17:56.015Z,98497.06
2023-01-27T04:20:22.414Z,98501.09
2023-01-27T04:22:48.833Z,98499.63
2023-01-27T04:25:15.720Z,98493.19
2023-01-27T04:27:43.347Z,98492.66
2023-01-27T04:30:10.439Z,98500.03
2023-01-27T04:32:36.868Z,98503.44
2023-01-27T04:35:03.595Z,98507.44
2023-01-27T04:37:30.420Z,98499.75
2023-01-27T04:39:56.835Z,98504.38
2023-01-27T04:42:23.246Z,98509.69
2023-01-27T04:44:50.007Z,98517.56
2023-01-27T04:47:16.458Z,98508.03
2023-01-27T04:49:42.964Z,98510.41
2023-01-27T04:52:09.396Z,98509.88
2023-01-27T04:54:35.940Z,98500.09
2023-01-27T04:57:05.610Z,98510.28
2023-01-27T04:59:32.160Z,98520.19
2023-01-27T05:01:59.471Z,98514.09
2023-01-27T05:04:27.001Z,98511.38
2023-01-27T05:06:53.946Z,98510.84
2023-01-27T05:09:20.367Z,98517.66
2023-01-27T05:11:46.826Z,98518.13
2023-01-27T05:14:14.490Z,98522.81
2023-01-27T05:16:41.029Z,98514.97
2023-01-27T05:19:08.971Z,98525.97
2023-01-27T05:21:35.564Z,98528.84
2023-01-27T05:24:02.692Z,98517.97
2023-01-27T05:26:29.238Z,98530.91
2023-01-27T05:28:59.004Z,98529.44
2023-01-27T05:31:31.619Z,98524.88
2023-01-27T05:34:00.434Z,98535.31
2023-01-27T05:36:27.697Z,98543.06
2023-01-27T05:38:55.288Z,98536.03
2023-01-27T05:41:22.623Z,98533.94
2023-01-27T05:43:55.587Z,98544.31
2023-01-27T05:46:25.067Z,98547.47
2023-01-27T05:48:54.462Z,98552.09
2023-01-27T05:51:23.415Z,98541.50
2023-01-27T05:53:50.209Z,98543.88
2023-01-27T05:56:18.915Z,98544.69
2023-01-27T05:58:45.925Z,98549.91
2023-01-27T06:01:14.234Z,98548.38
2023-01-27T06:03:41.698Z,98545.09
2023-01-27T06:06:09.769Z,98550.47
2023-01-27T06:08:37.254Z,98544.44
2023-01-27T06:11:04.324Z,98557.38
2023-01-27T06:13:31.251Z,98558.03
2023-01-27T06:15:57.754Z,98547.47
2023-01-27T06:18:24.513Z,98555.97
2023-01-27T06:20:50.917Z,98546.34
2023-01-27T06:23:18.230Z,98551.56
2023-01-27T06:25:47.713Z,98553.19
2023-01-27T06:28:28.280Z,98567.28
2023-01-27T06:30:56.689Z,98569.19
2023-01-27T06:33:23.420Z,98574.44
2023-01-27T06:35:49.874Z,98573.19
2023-01-27T06:38:16.511Z,98565.75
2023-01-27T06:40:44.056Z,98567.00
2023-01-27T06:43:13.829Z,98557.09
2023-01-27T06:45:41.085Z,98570.84
2023-01-27T06:48:08.615Z,98578.81
2023-01-27T06:50:35.962Z,98577.88
2023-01-27T06:53:05.661Z,98578.31
2023-01-27T06:55:32.960Z,98583.22
2023-01-27T06:57:59.403Z,98589.59
2023-01-27T07:00:26.037Z,98597.44
2023-01-27T07:02:55.594Z,98590.66
2023-01-27T07:05:22.223Z,98591.47
2023-01-27T07:07:48.679Z,98595.06
2023-01-27T07:10:15.711Z,98603.03
2023-01-27T07:12:42.325Z,98613.66
2023-01-27T07:15:09.884Z,98609.53
2023-01-27T07:17:37.121Z,98615.00
2023-01-27T07:20:05.275Z,98609.69
2023-01-27T07:22:31.762Z,98608.84
2023-01-27T07:24:58.365Z,98608.53
2023-01-27T07:27:25.485Z,98611.31
2023-01-27T07:29:52.150Z,98611.72
2023-01-27T07:32:18.841Z,98611.28
2023-01-27T07:34:45.398Z,98604.16
2023-01-27T07:37:13.483Z,98620.13
2023-01-27T07:39:39.958Z,98617.38
2023-01-27T07:42:07.021Z,98622.59
2023-01-27T07:44:34.325Z,98626.16
2023-01-27T07:47:00.750Z,98631.00
2023-01-27T07:49:27.680Z,98630.72
2023-01-27T07:51:54.287Z,98616.13
2023-01-27T07:54:20.838Z,98641.44
2023-01-27T07:56:47.318Z,98627.56
2023-01-27T07:59:13.945Z,98635.81
2023-01-27T08:01:41.759Z,98640.34
2023-01-27T08:04:08.313Z,98643.50
2023-01-27T08:06:34.925Z,98652.31
2023-01-27T08:09:01.411Z,98655.22
2023-01-27T08:11:27.873Z,98655.63
2023-01-27T08:13:54.294Z,98663.84
2023-01-27T08:16:20.788Z,98658.09
2023-01-27T08:18:47.167Z,98653.16
2023-01-27T08:21:13.877Z,98660.16
2023-01-27T08:23:40.571Z,98662.22
2023-01-27T08:26:07.632Z,98644.91
2023-01-27T08:28:36.171Z,98657.03
2023-01-27T08:31:11.208Z,98660.84
2023-01-27T08:33:38.839Z,98657.56
2023-01-27T08:36:08.481Z,98659.19
2023-01-27T08:38:35.173Z,98658.66
2023-01-27T08:41:07.122Z,98655.47
2023-01-27T08:43:34.190Z,98659.19
2023-01-27T08:46:00.948Z,98670.63
2023-01-27T08:48:31.336Z,98671.19
2023-01-27T08:50:58.586Z,98668.56
2023-01-27T08:53:26.654Z,98672.84
2023-01-27T08:55:55.761Z,98674.75
2023-01-27T08:58:22.850Z,98669.41
2023-01-27T09:00:49.340Z,98669.41
2023-01-27T09:03:16.745Z,98677.25
2023-01-27T09:05:43.394Z,98678.47
2023-01-27T09:08:10.180Z,98692.53
2023-01-27T09:10:39.020Z,98679.03
2023-01-27T09:13:05.540Z,98688.09
2023-01-27T09:15:32.411Z,98695.13
2023-01-27T09:17:59.305Z,98684.94
2023-01-27T09:20:25.829Z,98687.72
2023-01-27T09:22:54.698Z,98701.59
2023-01-27T09:25:21.181Z,98693.06
2023-01-27T09:27:47.907Z,98700.66
2023-01-27T09:30:16.491Z,98706.41
2023-01-27T09:32:43.273Z,98713.03
2023-01-27T09:35:10.063Z,98703.94
2023-01-27T09:37:43.131Z,98703.38
2023-01-27T09:40:21.496Z,98693.63
2023-01-27T09:42:59.634Z,98720.88
2023-01-27T09:45:55.310Z,98722.13
2023-01-27T09:48:58.142Z,98712.19
2023-01-27T09:51:52.849Z,98712.47
2023-01-27T09:54:43.554Z,98723.31
2023-01-27T09:57:36.062Z,98715.75
2023-01-27T10:00:17.055Z,98729.53
2023-01-27T10:03:23.518Z,98719.78
2023-01-27T10:06:24.361Z,98725.56
2023-01-27T10:09:19.387Z,98722.94
2023-01-27T10:11:57.266Z,98728.88
2023-01-27T10:14:30.232Z,98724.19
2023-01-27T10:17:08.547Z,98723.66
2023-01-27T10:19:52.324Z,98730.81
2023-01-27T10:22:27.943Z,98723.38
2023-01-27T10:25:12.270Z,98716.50
2023-01-27T10:27:46.162Z,98716.34
2023-01-27T10:30:27.763Z,98713.16
2023-01-27T10:33:27.778Z,98699.09
2023-01-27T10:36:13.792Z,98706.41
2023-01-27T10:39:17.740Z,98694.28
2023-01-27T10:42:10.605Z,98704.91
2023-01-27T10:45:01.118Z,98695.00
2023-01-27T10:47:42.826Z,98691.66
2023-01-27T10:50:19.534Z,98685.03
2023-01-27T10:52:54.756Z,98677.88
2023-01-27T10:55:37.571Z,98690.84
2023-01-27T10:58:12.126Z,98689.22
2023-01-27T11:01:19.705Z,98687.94
2023-01-27T11:03:42.173Z,98683.66
2023-01-27T11:06:15.337Z,98687.50
2023-01-27T11:08:46.161Z,98683.00
2023-01-27T11:11:33.992Z,98681.59
2023-01-27T11:14:10.119Z,98686.38
2023-01-27T11:16:40.103Z,98678.25
2023-01-27T11:19:33.136Z,98677.38
2023-01-27T11:22:07.503Z,98673.78
2023-01-27T11:25:00.828Z,98679.53
2023-01-27T11:27:41.466Z,98674.44
2023-01-27T11:30:21.537Z,98669.91
2023-01-27T11:32:59.158Z,98660.63
2023-01-27T11:35:25.705Z,98681.81
2023-01-27T11:37:56.268Z,98682.34
2023-01-27T11:40:32.413Z,98659.75
2023-01-27T11:42:59.732Z,98654.97
2023-01-27T11:45:30.251Z,98674.72
2023-01-27T11:48:00.317Z,98689.94
2023-01-27T11:50:30.663Z,98682.41
2023-01-27T11:53:36.851Z,98676.84
2023-01-27T11:56:10.390Z,98678.66
2023-01-27T11:58:44.573Z,98681.69
2023-01-27T12:01:18.858Z,98681.69
2023-01-27T12:04:09.557Z,98671.22
2023-01-27T12:06:44.855Z,98641.69
2023-01-27T12:09:31.538Z,98683.13
2023-01-27T12:12:10.238Z,98670.47
2023-01-27T12:14:36.909Z,98675.44
2023-01-27T12:17:06.268Z,98666.09
2023-01-27T12:19:41.009Z,98672.34
2023-01-27T12:22:24.500Z,98657.03
2023-01-27T12:24:56.470Z,98656.88
2023-01-27T12:27:27.063Z,98673.88
2023-01-27T12:29:56.994Z,98662.41
2023-01-27T12:32:55.717Z,98664.69
2023-01-27T12:35:27.663Z,98661.81
2023-01-27T12:38:04.917Z,98669.13
2023-01-27T12:40:33.613Z,98660.44
2023-01-27T12:43:14.740Z,98668.91
2023-01-27T12:45:43.385Z,98663.56
2023-01-27T12:48:09.954Z,98658.22
2023-01-27T12:50:54.626Z,98656.53
2023-01-27T12:53:27.737Z,98654.47
2023-01-27T12:55:59.989Z,98659.31
2023-01-27T12:58:33.625Z,98643.59
2023-01-27T13:01:18.493Z,98655.34
2023-01-27T13:03:48.593Z,98642.50
2023-01-27T13:06:18.392Z,98652.31
2023-01-27T13:08:47.095Z,98659.22
2023-01-27T13:11:13.705Z,98662.53
2023-01-27T13:13:49.928Z,98664.06
2023-01-27T13:16:24.194Z,98666.59
2023-01-27T13:18:59.437Z,98666.31
2023-01-27T13:21:34.080Z,98664.34
2023-01-27T13:24:04.000Z,98665.06
2023-01-27T13:26:34.368Z,98664.69
2023-01-27T13:29:09.686Z,98670.66
2023-01-27T13:31:51.842Z,98656.50
2023-01-27T13:34:24.798Z,98667.38
2023-01-27T13:36:57.837Z,98661.13
2023-01-27T13:39:54.761Z,98658.69
2023-01-27T13:42:28.763Z,98658.44
2023-01-27T13:45:01.233Z,98658.94
2023-01-27T13:47:41.165Z,98661.41
2023-01-27T13:50:33.659Z,98662.03
2023-01-27T13:53:01.995Z,98654.84
2023-01-27T13:55:57.796Z,98660.47
2023-01-27T13:58:47.292Z,98668.19
2023-01-27T14:01:36.154Z,98666.09
2023-01-27T14:04:21.280Z,98674.22
2023-01-27T14:07:13.974Z,98670.22
2023-01-27T14:10:07.570Z,98670.50
2023-01-27T14:12:40.784Z,98669.72
2023-01-27T14:15:46.767Z,98664.28
2023-01-27T14:18:21.892Z,98665.00
2023-01-27T14:21:00.939Z,98666.94
2023-01-27T14:23:37.623Z,98674.69
2023-01-27T14:26:23.758Z,98669.72
2023-01-27T14:29:00.484Z,98668.69
2023-01-27T14:31:37.332Z,98665.88
2023-01-27T14:34:09.994Z,98673.66
2023-01-27T14:36:50.422Z,98682.81
2023-01-27T14:39:28.737Z,98690.91
2023-01-27T14:42:16.239Z,98684.66
2023-01-27T14:45:03.783Z,98688.63
2023-01-27T14:47:50.780Z,98696.53
2023-01-27T14:50:30.082Z,98697.44
2023-01-27T14:53:28.490Z,98695.75
2023-01-27T14:56:26.004Z,98692.13
2023-01-27T14:59:05.819Z,98693.31
2023-01-27T15:01:39.501Z,98699.75
2023-01-27T15:04:44.285Z,98699.88
2023-01-27T15:07:14.403Z,98700.28
2023-01-27T15:09:49.774Z,98703.00
2023-01-27T15:12:48.152Z,98709.69
2023-01-27T15:15:50.479Z,98713.66
2023-01-27T15:18:29.069Z,98713.59
2023-01-27T15:21:19.927Z,98707.44
2023-01-27T15:24:07.738Z,98716.31
2023-01-27T15:26:36.231Z,98711.84
2023-01-27T15:29:04.071Z,98725.84
2023-01-27T15:31:31.530Z,98720.09
2023-01-27T15:34:03.989Z,98723.66
2023-01-27T15:36:33.825Z,98725.34
2023-01-27T15:39:09.289Z,98727.06
2023-01-27T15:42:10.064Z,98734.72
2023-01-27T15:45:01.354Z,98731.09
2023-01-27T15:47:35.228Z,98724.06
2023-01-27T15:50:22.837Z,98733.59
2023-01-27T15:52:50.331Z,98740.75
2023-01-27T15:55:29.205Z,98736.31
2023-01-27T15:58:10.698Z,98730.31
2023-01-27T16:00:42.715Z,98738.16
2023-01-27T16:03:21.255Z,98728.28
2023-01-27T16:05:52.197Z,98738.47
2023-01-27T16:08:19.884Z,98725.25
2023-01-27T16:10:46.725Z,98742.44
2023-01-27T16:13:23.827Z,98740.09
2023-01-27T16:16:19.278Z,98737.00
2023-01-27T16:19:18.046Z,98739.03
2023-01-27T16:21:52.022Z,98739.72
2023-01-27T16:24:47.614Z,98746.69
2023-01-27T16:27:22.049Z,98752.72
2023-01-27T16:29:57.241Z,98756.97
2023-01-27T16:32:28.525Z,98768.03
2023-01-27T16:35:04.987Z,98758.84
2023-01-27T16:37:36.761Z,98761.34
2023-01-27T16:40:22.982Z,98757.28
2023-01-27T16:42:52.241Z,98758.28
2023-01-27T16:45:21.952Z,98759.13
2023-01-27T16:47:54.946Z,98758.84
2023-01-27T16:50:42.287Z,98769.94
2023-01-27T16:53:18.825Z,98765.66
2023-01-27T16:56:00.192Z,98763.59
2023-01-27T16:58:39.799Z,98765.84
2023-01-27T17:01:42.845Z,98768.44
2023-01-27T17:04:20.432Z,98773.84
2023-01-27T17:06:48.697Z,98778.84
2023-01-27T17:09:31.703Z,98779.94
2023-01-27T17:11:59.244Z,98783.34
2023-01-27T17:14:38.201Z,98777.44
2023-01-27T17:17:15.294Z,98793.22
2023-01-27T17:19:47.689Z,98782.34
2023-01-27T17:22:26.060Z,98782.06
2023-01-27T17:24:55.535Z,98791.00
2023-01-27T17:27:27.223Z,98794.50
2023-01-27T17:30:02.524Z,98789.81
2023-01-27T17:32:33.963Z,98777.69
2023-01-27T17:35:03.217Z,98801.31
2023-01-27T17:37:31.379Z,98792.78
2023-01-27T17:40:00.030Z,98796.78
2023-01-27T17:42:30.808Z,98799.25
2023-01-27T17:45:26.104Z,98795.56
2023-01-27T17:47:52.887Z,98784.50
2023-01-27T17:50:22.975Z,98805.22
2023-01-27T17:52:54.407Z,98811.25
2023-01-27T17:55:24.308Z,98808.06
2023-01-27T17:57:59.468Z,98809.56
2023-01-27T18:00:38.316Z,98812.25
2023-01-27T18:03:12.908Z,98804.81
2023-01-27T18:05:43.400Z,98809.25
2023-01-27T18:08:10.753Z,98808.78
2023-01-27T18:10:43.983Z,98805.84
2023-01-27T18:13:19.836Z,98803.38
2023-01-27T18:16:02.846Z,98804.56
2023-01-27T18:18:35.135Z,98814.88
2023-01-27T18:21:10.563Z,98809.53
2023-01-27T18:23:45.303Z,98811.69
2023-01-27T18:26:24.116Z,98819.84
2023-01-27T18:29:04.055Z,98804.03
2023-01-27T18:31:58.062Z,98815.09
2023-01-27T18:34:26.649Z,98819.00
2023-01-27T18:36:57.004Z,98830.34
2023-01-27T18:39:34.385Z,98823.13
2023-01-27T18:42:02.186Z,98825.81
2023-01-27T18:44:34.447Z,98830.66
2023-01-27T18:47:29.363Z,98829.16
2023-01-27T18:49:55.842Z,98836.31
2023-01-27T18:52:23.264Z,98831.22
2023-01-27T18:54:55.174Z,98838.13
2023-01-27T18:57:21.905Z,98832.50
2023-01-27T18:59:48.345Z,98836.75
2023-01-27T19:02:15.994Z,98837.28
2023-01-27T19:04:43.358Z,98840.34
2023-01-27T19:07:15.706Z,98832.34
2023-01-27T19:09:46.821Z,98836.03
2023-01-27T19:12:13.427Z,98838.97
2023-01-27T19:14:41.752Z,98814.81
2023-01-27T19:17:27.338Z,98834.53
2023-01-27T19:19:54.283Z,98842.78
2023-01-27T19:22:20.891Z,98840.31
2023-01-27T19:24:47.370Z,98846.88
2023-01-27T19:27:15.555Z,98849.03
2023-01-27T19:29:42.523Z,98845.69
2023-01-27T19:32:14.576Z,98840.03
2023-01-27T19:34:41.751Z,98836.34
2023-01-27T19:37:16.956Z,98849.97
2023-01-27T19:39:44.981Z,98851.03
2023-01-27T19:42:13.182Z,98853.81
2023-01-27T19:44:39.593Z,98857.16
2023-01-27T19:47:15.156Z,98845.69
2023-01-27T19:49:41.763Z,98854.06
2023-01-27T19:52:09.882Z,98855.13
2023-01-27T19:54:36.392Z,98864.00
2023-01-27T19:57:02.951Z,98864.47
2023-01-27T19:59:29.395Z,98855.22
2023-01-27T20:01:56.888Z,98867.84
2023-01-27T20:04:23.565Z,98861.97
2023-01-27T20:06:50.237Z,98866.66
2023-01-27T20:09:16.631Z,98874.28
2023-01-27T20:11:44.538Z,98873.97
2023-01-27T20:14:14.208Z,98855.78
2023-01-27T20:16:41.130Z,98864.44
2023-01-27T20:19:32.655Z,98865.69
2023-01-27T20:22:01.469Z,98866.97
2023-01-27T20:24:28.074Z,98873.50
2023-01-27T20:26:56.320Z,98870.84
2023-01-27T20:29:22.730Z,98875.84
2023-01-27T20:31:49.733Z,98879.78
2023-01-27T20:34:16.396Z,98874.53
2023-01-27T20:36:42.823Z,98875.88
2023-01-27T20:39:09.693Z,98869.59
2023-01-27T20:41:36.179Z,98879.50
2023-01-27T20:44:02.783Z,98883.66
2023-01-27T20:46:29.827Z,98880.50
2023-01-27T20:48:57.891Z,98879.50
2023-01-27T20:51:24.320Z,98886.97
2023-01-27T20:53:50.754Z,98877.47
2023-01-27T20:56:20.142Z,98887.69
2023-01-27T20:58:47.676Z,98889.78
2023-01-27T21:01:23.633Z,98870.50
2023-01-27T21:03:50.756Z,98884.53
2023-01-27T21:06:19.747Z,98877.94
2023-01-27T21:08:49.597Z,98893.75
2023-01-27T21:11:18.635Z,98887.97
2023-01-27T21:13:45.471Z,98903.56
2023-01-27T21:16:12.810Z,98872.94
2023-01-27T21:18:39.446Z,98895.31
2023-01-27T21:21:06.176Z,98885.94
2023-01-27T21:23:34.094Z,98889.25
2023-01-27T21:26:05.537Z,98886.91
2023-01-27T21:28:33.945Z,98888.13
2023-01-27T21:31:07.999Z,98887.72
2023-01-27T21:33:36.832Z,98900.69
2023-01-27T21:36:04.187Z,98893.69
2023-01-27T21:38:31.607Z,98899.16
2023-01-27T21:41:10.241Z,98885.91
2023-01-27T21:43:55.983Z,98893.38
2023-01-27T21:46:22.919Z,98903.88
2023-01-27T21:48:49.798Z,98900.28
2023-01-27T21:51:16.220Z,98892.69
2023-01-27T21:53:42.718Z,98898.91
2023-01-27T21:56:10.908Z,98893.94
2023-01-27T21:58:37.399Z,98880.69
2023-01-27T22:01:08.277Z,98899.72
2023-01-27T22:03:36.917Z,98896.28
2023-01-27T22:06:05.673Z,98891.06
2023-01-27T22:08:32.283Z,98897.81
2023-01-27T22:11:16.731Z,98903.06
2023-01-27T22:13:43.175Z,98915.75
2023-01-27T22:16:14.770Z,98903.88
2023-01-27T22:18:41.975Z,98900.28
2023-01-27T22:21:09.344Z,98899.75
2023-01-27T22:23:35.864Z,98889.25
2023-01-27T22:26:02.248Z,98910.22
2023-01-27T22:28:30.031Z,98905.53
2023-01-27T22:31:01.037Z,98909.13
2023-01-27T22:33:27.500Z,98907.75
2023-01-27T22:36:02.568Z,98907.06
2023-01-27T22:38:29.073Z,98900.16
2023-01-27T22:40:58.828Z,98904.72
2023-01-27T22:43:25.503Z,98895.75
2023-01-27T22:45:52.119Z,98898.22
2023-01-27T22:48:18.634Z,98898.13
2023-01-27T22:50:45.093Z,98898.38
2023-01-27T22:53:11.557Z,98893.56
2023-01-27T22:55:37.968Z,98903.88
2023-01-27T22:58:04.428Z,98909.41
2023-01-27T23:00:30.864Z,98903.63
2023-01-27T23:02:57.290Z,98901.16
2023-01-27T23:05:23.914Z,98903.06
2023-01-27T23:07:50.368Z,98892.28
2023-01-27T23:10:17.096Z,98903.44
2023-01-27T23:12:43.546Z,98891.28
2023-01-27T23:15:10.642Z,98884.56
2023-01-27T23:17:37.081Z,98903.59
2023-01-27T23:20:04.151Z,98895.03
2023-01-27T23:22:30.541Z,98898.66
2023-01-27T23:24:56.986Z,98859.38
2023-01-27T23:27:23.394Z,98904.16
2023-01-27T23:29:49.876Z,98914.09
2023-01-27T23:32:16.290Z,98911.47
2023-01-27T23:34:42.841Z,98898.94
2023-01-27T23:37:09.342Z,98905.25
2023-01-27T23:39:35.781Z,98907.91
2023-01-27T23:42:02.318Z,98903.34
2023-01-27T23:44:28.716Z,98900.56
2023-01-27T23:46:55.198Z,98911.88
2023-01-27T23:49:21.630Z,98900.28
2023-01-27T23:51:48.031Z,98900.03
2023-01-27T23:54:14.509Z,98911.22
2023-01-27T23:56:40.885Z,98914.09
2023-01-27T23:59:07.303Z,98908.00
